createdAt,value
2023-09-16T00:04:34.810Z,99.90
2023-09-16T00:09:39.826Z,99.90
2023-09-16T00:14:43.020Z,99.90
2023-09-16T00:19:46.508Z,99.90
2023-09-16T00:24:49.849Z,99.90
2023-09-16T00:29:53.009Z,99.90
2023-09-16T00:34:55.941Z,99.90
2023-09-16T00:39:59.003Z,99.90
2023-09-16T00:45:02.023Z,99.90
2023-09-16T00:50:08.938Z,99.90
2023-09-16T00:55:12.366Z,99.90
2023-09-16T01:00:17.909Z,99.90
2023-09-16T01:05:21.365Z,99.90
2023-09-16T01:10:24.442Z,99.90
2023-09-16T01:15:34.868Z,99.90
2023-09-16T01:20:40.521Z,99.90
2023-09-16T01:25:43.677Z,99.90
2023-09-16T01:30:50.275Z,99.90
2023-09-16T01:36:13.645Z,99.90
2023-09-16T01:41:20.720Z,99.90
2023-09-16T01:46:23.874Z,99.90
2023-09-16T01:51:27.025Z,99.90
2023-09-16T01:56:30.480Z,99.90
2023-09-16T02:01:33.675Z,99.90
2023-09-16T02:06:36.766Z,99.90
2023-09-16T02:11:39.968Z,99.90
2023-09-16T02:16:43.325Z,99.90
2023-09-16T02:21:46.549Z,99.90
2023-09-16T02:26:49.769Z,99.90
2023-09-16T02:31:52.958Z,99.90
2023-09-16T02:36:56.127Z,99.90
2023-09-16T02:41:59.170Z,99.90
2023-09-16T02:47:02.246Z,99.90
2023-09-16T02:52:05.428Z,99.90
2023-09-16T02:57:08.602Z,99.90
2023-09-16T03:02:11.835Z,99.90
2023-09-16T03:07:14.840Z,99.90
2023-09-16T03:12:17.821Z,99.90
2023-09-16T03:17:21.172Z,99.90
2023-09-16T03:22:24.208Z,99.90
2023-09-16T03:27:27.318Z,99.90
2023-09-16T03:32:31.065Z,99.90
2023-09-16T03:37:34.099Z,99.90
2023-09-16T03:42:37.196Z,99.90
2023-09-16T03:47:40.275Z,99.90
2023-09-16T03:52:43.276Z,99.90
2023-09-16T03:57:46.418Z,99.90
2023-09-16T04:02:49.625Z,99.90
2023-09-16T04:07:52.931Z,99.90
2023-09-16T04:12:56.132Z,99.90
2023-09-16T04:17:59.605Z,99.90
2023-09-16T04:23:02.862Z,99.90
2023-09-16T04:28:06.655Z,99.90
2023-09-16T04:33:10.988Z,99.90
2023-09-16T04:38:15.068Z,99.90
2023-09-16T04:43:18.196Z,99.90
2023-09-16T04:48:24.087Z,99.90
2023-09-16T04:53:27.238Z,99.90
2023-09-16T04:58:30.390Z,99.90
2023-09-16T05:03:34.235Z,99.90
2023-09-16T05:08:37.637Z,99.90
2023-09-16T05:13:40.650Z,99.90
2023-09-16T05:18:43.973Z,99.90
2023-09-16T05:23:48.188Z,99.90
2023-09-16T05:28:52.123Z,99.90
2023-09-16T05:33:55.163Z,99.90
2023-09-16T05:38:58.752Z,99.90
2023-09-16T05:44:03.064Z,99.90
2023-09-16T05:49:10.433Z,99.90
2023-09-16T05:54:15.298Z,99.90
2023-09-16T05:59:18.484Z,99.90
2023-09-16T06:04:21.608Z,99.90
2023-09-16T06:09:24.828Z,99.90
2023-09-16T06:14:27.948Z,99.90
2023-09-16T06:19:31.544Z,99.90
2023-09-16T06:24:34.749Z,99.90
2023-09-16T06:29:37.778Z,99.90
2023-09-16T06:34:40.855Z,99.90
2023-09-16T06:39:47.294Z,99.90
2023-09-16T06:44:55.911Z,99.90
2023-09-16T06:49:59.449Z,99.90
2023-09-16T06:55:02.535Z,99.90
2023-09-16T07:00:07.406Z,99.90
2023-09-16T07:05:12.309Z,99.90
2023-09-16T07:10:16.185Z,99.90
2023-09-16T07:15:21.126Z,99.90
2023-09-16T07:20:24.667Z,99.90
2023-09-16T07:25:27.942Z,99.90
2023-09-16T07:30:31.061Z,99.90
2023-09-16T07:35:34.181Z,99.90
2023-09-16T07:40:39.468Z,99.90
2023-09-16T07:45:43.452Z,99.90
2023-09-16T07:50:47.201Z,99.90
2023-09-16T07:55:50.335Z,99.90
2023-09-16T08:00:54.753Z,99.90
2023-09-16T08:05:58.642Z,99.90
2023-09-16T08:11:01.896Z,99.90
2023-09-16T08:16:05.237Z,99.90
2023-09-16T08:21:08.866Z,99.90
2023-09-16T08:26:11.872Z,99.90
2023-09-16T08:31:14.920Z,99.90
2023-09-16T08:36:18.997Z,99.90
2023-09-16T08:41:57.911Z,99.90
2023-09-16T08:47:08.244Z,99.90
2023-09-16T08:52:13.224Z,99.90
2023-09-16T08:57:18.235Z,99.90
2023-09-16T09:02:22.558Z,99.90
2023-09-16T09:07:27.289Z,99.90
2023-09-16T09:12:31.413Z,99.90
2023-09-16T09:17:42.660Z,99.90
2023-09-16T09:22:47.239Z,99.90
2023-09-16T09:27:52.250Z,99.90
2023-09-16T09:32:59.643Z,99.90
2023-09-16T09:38:02.706Z,98.80
2023-09-16T09:43:06.208Z,98.50
2023-09-16T09:48:09.319Z,96.90
2023-09-16T09:53:12.526Z,96.10
2023-09-16T09:58:15.746Z,95.60
2023-09-16T10:03:20.702Z,94.30
2023-09-16T10:08:23.912Z,93.80
2023-09-16T10:13:26.995Z,93.40
2023-09-16T10:18:30.543Z,93.20
2023-09-16T10:23:33.850Z,93.80
2023-09-16T10:28:53.684Z,93.10
2023-09-16T10:33:58.440Z,91.80
2023-09-16T10:39:03.356Z,90.20
2023-09-16T10:44:07.809Z,89.10
2023-09-16T10:49:11.317Z,88.50
2023-09-16T10:54:25.623Z,88.80
2023-09-16T10:59:31.590Z,87.70
2023-09-16T11:04:34.769Z,84.80
2023-09-16T11:09:38.718Z,84.30
2023-09-16T11:14:41.920Z,84.00
2023-09-16T11:19:44.960Z,83.00
2023-09-16T11:24:54.929Z,83.80
2023-09-16T11:29:57.935Z,82.00
2023-09-16T11:35:04.291Z,81.40
2023-09-16T11:40:10.430Z,81.10
2023-09-16T11:45:16.539Z,79.90
2023-09-16T11:50:28.167Z,79.30
2023-09-16T11:55:31.426Z,79.90
2023-09-16T12:00:34.646Z,77.00
2023-09-16T12:05:38.537Z,76.60
2023-09-16T12:10:41.856Z,77.40
2023-09-16T12:15:45.068Z,78.00
2023-09-16T12:20:50.629Z,76.90
2023-09-16T12:25:54.391Z,76.40
2023-09-16T12:30:57.868Z,75.80
2023-09-16T12:36:01.159Z,75.90
2023-09-16T12:41:05.236Z,75.10
2023-09-16T12:46:09.647Z,75.70
2023-09-16T12:51:13.751Z,75.00
2023-09-16T12:56:20.829Z,75.60
2023-09-16T13:01:25.239Z,74.80
2023-09-16T13:06:29.984Z,72.60
2023-09-16T13:11:34.840Z,72.90
2023-09-16T13:16:40.164Z,72.20
2023-09-16T13:21:43.525Z,70.60
2023-09-16T13:26:51.144Z,70.70
2023-09-16T13:32:06.590Z,70.80
2023-09-16T13:37:10.151Z,71.40
2023-09-16T13:42:14.599Z,71.00
2023-09-16T13:47:18.309Z,70.50
2023-09-16T13:52:22.044Z,71.10
2023-09-16T13:57:25.388Z,69.90
2023-09-16T14:02:28.551Z,69.80
2023-09-16T14:07:32.096Z,70.00
2023-09-16T14:12:38.232Z,69.70
2023-09-16T14:17:42.648Z,68.70
2023-09-16T14:22:48.377Z,68.00
2023-09-16T14:27:51.495Z,66.00
2023-09-16T14:32:55.052Z,64.90
2023-09-16T14:37:58.063Z,65.40
2023-09-16T14:43:01.702Z,66.50
2023-09-16T14:48:05.222Z,66.90
2023-09-16T14:53:08.326Z,67.70
2023-09-16T14:58:12.057Z,68.50
2023-09-16T15:03:15.588Z,69.80
2023-09-16T15:08:19.409Z,69.20
2023-09-16T15:13:22.857Z,68.70
2023-09-16T15:18:26.546Z,69.00
2023-09-16T15:23:30.276Z,70.30
2023-09-16T15:28:33.934Z,70.00
2023-09-16T15:33:37.533Z,70.90
2023-09-16T15:38:43.412Z,71.40
2023-09-16T15:43:47.071Z,72.30
2023-09-16T15:48:50.462Z,72.00
2023-09-16T15:53:54.014Z,72.20
2023-09-16T15:58:57.171Z,73.10
2023-09-16T16:04:00.721Z,74.60
2023-09-16T16:09:04.122Z,75.10
2023-09-16T16:14:11.106Z,74.60
2023-09-16T16:19:15.282Z,74.90
2023-09-16T16:24:18.812Z,75.90
2023-09-16T16:29:23.684Z,77.20
2023-09-16T16:34:27.099Z,78.40
2023-09-16T16:39:30.278Z,79.60
2023-09-16T16:44:33.872Z,81.00
2023-09-16T16:49:37.653Z,81.60
2023-09-16T16:54:40.655Z,82.70
2023-09-16T16:59:44.695Z,83.70
2023-09-16T17:04:48.188Z,85.00
2023-09-16T17:09:52.764Z,86.50
2023-09-16T17:14:56.322Z,88.10
2023-09-16T17:20:01.226Z,90.00
2023-09-16T17:25:06.015Z,90.70
2023-09-16T17:30:10.341Z,92.20
2023-09-16T17:35:13.833Z,92.90
2023-09-16T17:40:17.540Z,93.80
2023-09-16T17:45:20.890Z,94.80
2023-09-16T17:50:24.251Z,95.90
2023-09-16T17:55:29.284Z,97.00
2023-09-16T18:00:33.109Z,99.40
2023-09-16T18:05:38.461Z,99.90
2023-09-16T18:10:41.942Z,99.90
2023-09-16T18:15:45.293Z,99.90
2023-09-16T18:20:49.477Z,99.90
2023-09-16T18:25:53.133Z,99.90
2023-09-16T18:30:56.318Z,99.90
2023-09-16T18:36:00.276Z,99.90
2023-09-16T18:41:03.863Z,99.90
2023-09-16T18:46:08.162Z,99.90
2023-09-16T18:51:12.291Z,99.90
2023-09-16T18:56:16.013Z,99.90
2023-09-16T19:01:20.589Z,99.90
2023-09-16T19:06:25.096Z,99.90
2023-09-16T19:11:29.409Z,99.90
2023-09-16T19:16:34.447Z,99.90
2023-09-16T19:21:39.163Z,99.90
2023-09-16T19:26:44.516Z,99.90
2023-09-16T19:31:48.288Z,99.90
2023-09-16T19:36:55.527Z,99.90
2023-09-16T19:42:01.409Z,99.90
2023-09-16T19:47:07.226Z,99.90
2023-09-16T19:52:11.799Z,99.90
2023-09-16T19:57:19.146Z,99.90
2023-09-16T20:02:23.729Z,99.90
2023-09-16T20:07:29.821Z,99.90
2023-09-16T20:12:35.649Z,99.90
2023-09-16T20:17:39.644Z,99.90
2023-09-16T20:22:45.294Z,99.90
2023-09-16T20:27:48.874Z,99.90
2023-09-16T20:32:52.765Z,99.90
2023-09-16T20:38:01.281Z,99.90
2023-09-16T20:43:05.467Z,99.90
2023-09-16T20:48:09.777Z,99.90
2023-09-16T20:53:13.648Z,99.90
2023-09-16T20:58:18.745Z,99.90
2023-09-16T21:03:22.550Z,99.90
2023-09-16T21:08:25.853Z,99.90
2023-09-16T21:13:28.851Z,99.90
2023-09-16T21:18:32.065Z,99.90
2023-09-16T21:23:35.124Z,99.90
2023-09-16T21:28:38.236Z,99.90
2023-09-16T21:33:41.606Z,99.90
2023-09-16T21:38:44.798Z,99.90
2023-09-16T21:43:49.438Z,99.90
2023-09-16T21:48:52.945Z,99.90
2023-09-16T21:53:56.338Z,99.90
2023-09-16T21:58:59.774Z,99.90
2023-09-16T22:04:05.311Z,99.90
2023-09-16T22:09:09.180Z,99.90
2023-09-16T22:14:12.578Z,99.90
2023-09-16T22:19:15.689Z,99.90
2023-09-16T22:24:18.736Z,99.90
2023-09-16T22:29:21.762Z,99.90
2023-09-16T22:34:24.911Z,99.90
2023-09-16T22:39:28.031Z,99.90
2023-09-16T22:44:31.067Z,99.90
2023-09-16T22:49:53.782Z,99.90
2023-09-16T22:54:56.942Z,99.90
2023-09-16T23:00:01.398Z,99.90
2023-09-16T23:05:05.679Z,99.90
2023-09-16T23:10:08.918Z,99.90
2023-09-16T23:15:12.009Z,99.90
2023-09-16T23:20:15.137Z,99.90
2023-09-16T23:25:18.201Z,99.90
2023-09-16T23:30:21.200Z,99.90
2023-09-16T23:35:24.451Z,99.90
2023-09-16T23:40:27.913Z,99.90
2023-09-16T23:45:30.952Z,99.90
2023-09-16T23:50:34.380Z,99.90
2023-09-16T23:55:38.965Z,99.90
